KORC

Details ICAO KORC
Name ORANGE CITY MUNI
Region United States
Timezone America/Chicago (UTC-5.0)
Plans Departing 2
Arriving 4
Stats Elevation 1,414 ft / 431 m (AMSL)
Location 42.990264° -96.062797°
Runways 1
Magnetic Variation 2.531° E
Sunrise 2018-05-23 10:55:07 UTC / 2018-05-23 05:55:07 Local
Sunset 2018-05-24 01:49:47 UTC / 2018-05-23 20:49:47 Local
Advertisement - Login to hide

Runways

ID Width Length Bearing (true) Bearing (mag) Surface Threshold Offset Overrun Length
16 60 ft / 18 m 4,254 ft / 1,297 m 164.82° 162.29° Concrete 0 ft / 0 m 0 ft / 0 m
34 60 ft / 18 m 4,254 ft / 1,297 m 344.82° 342.29° Concrete 0 ft / 0 m 0 ft / 0 m

Map

Weather


0- 5 10 15 20 25 30 35+ Temperature / ° C

Clouds and Precipitation
Forecast for 2018-05-24 00:00 UTC. Updated 5 hours ago

Ground ~20,000 ft ~40,000 ft Winds

METAR

KORC 240335Z AUTO 15008KT 10SM CLR 26/16 A3000 RMK AO2

TAF

Not found

Frequencies

Recorded 127.82 MHz AWOS 3
Approach 124.10 MHz MINNEAPOLIS CNTR
Unicom 122.80 MHz CTAF/UNICOM
Warning: Do not use this data for real-world aviation or navigation. No guarantee of current accuracy is given.